Pagrindinis puslapis
METAR-TAF:

METAR-TAF

Oro uostai :

Talkeetna, Aliaska, Jungtinės Amerikos Valstijos

platuma: 62-19-14N, ilguma: 150-05-37W, Aukštis: 109 m

Dabartinis oras

Ataskaita buvo paskelbta 23 minutes, ne 21:53 UTC
Vėjas 3 kt iš Vakarų/Pietvakarių
Temperatūra 11°C
Drėgmė 76%
Slėgis 996 hPa
Matomumas: 16.1 km
Mažai debesys ne aukštis 1600 ft
Išsisklaidę debesys ne aukštis 3800 ft
Apsiniaukę ne aukštis 7000 ft

METAR: PATK 212153Z 24003KT 10SM FEW016 SCT038 OVC070 11/07 A2940 RMK AO2 SLP958 T01110072

Laikas: 14:16 (22:16 UTC)

Prognozė

Ataskaita buvo paskelbta 28 minutes, ne 21:48 UTC
Prognozė galioja nuo 21 metu 22 UTC su 22 metu 18 UTC
Vėjas 3 kt nuo kintamojo kryptimis
Matomumas: 10 km
Mažai debesys ne aukštis 2000 ft
Su prošvaistėmis ne aukštis 4000 ft
Liūtis kaimynystėje
Nuo 22 metu 1000 UTC
Vėjas 4 kt nuo kintamojo kryptimis
Matomumas: 10 km
Išsisklaidę debesys ne aukštis 3000 ft
Apsiniaukę ne aukštis 8000 ft

TAF: PATK 212148Z 2122/2218 VRB03KT P6SM VCSH FEW020 BKN040 FM221000 VRB04KT P6SM SCT030 OVC080

Orai ataskaitas ir orų prognozės (METAR, TAF).

turimą stotys yra geltonos ir raudonos taškus žemėlapyje.

Perkelti pele per norėdami pamatyti stoties vardą.

Tada spustelėkite, norėdami matyti oro stebėjimo ir prognozės.

Norėdami pakeisti žemėlapį: spustelėkite ant žalios mygtukų su juodo kryžiaus žemyn,; žalią mygtuką su brūkšneliu, jei norite nutolinti; arba žalių rodyklių gretimoms žemėlapius.


METAR-TAF: